sensor_id;sensor_type;location;lat;lon;timestamp;P1;durP1;ratioP1;P2;durP2;ratioP2
48897;SDS011;34713;50.038;20.000;2024-02-26T00:01:45;17.90;;;11.40;;
48897;SDS011;34713;50.038;20.000;2024-02-26T00:04:12;19.00;;;11.30;;
48897;SDS011;34713;50.038;20.000;2024-02-26T00:06:39;20.40;;;11.50;;
48897;SDS011;34713;50.038;20.000;2024-02-26T00:09:07;21.50;;;11.10;;
48897;SDS011;34713;50.038;20.000;2024-02-26T00:11:37;19.40;;;10.90;;
48897;SDS011;34713;50.038;20.000;2024-02-26T00:14:04;22.10;;;12.30;;
48897;SDS011;34713;50.038;20.000;2024-02-26T00:16:31;21.70;;;11.90;;
48897;SDS011;34713;50.038;20.000;2024-02-26T00:18:58;20.40;;;11.00;;
48897;SDS011;34713;50.038;20.000;2024-02-26T00:21:24;21.30;;;11.50;;
48897;SDS011;34713;50.038;20.000;2024-02-26T00:23:52;20.10;;;10.50;;
48897;SDS011;34713;50.038;20.000;2024-02-26T00:26:19;20.30;;;10.70;;
48897;SDS011;34713;50.038;20.000;2024-02-26T00:28:46;20.90;;;10.40;;
48897;SDS011;34713;50.038;20.000;2024-02-26T00:31:12;19.00;;;10.60;;
48897;SDS011;34713;50.038;20.000;2024-02-26T00:33:39;21.90;;;11.10;;
48897;SDS011;34713;50.038;20.000;2024-02-26T00:36:05;18.30;;;11.90;;
48897;SDS011;34713;50.038;20.000;2024-02-26T00:38:32;21.40;;;12.00;;
48897;SDS011;34713;50.038;20.000;2024-02-26T00:40:59;19.00;;;11.10;;
48897;SDS011;34713;50.038;20.000;2024-02-26T00:43:25;17.30;;;10.50;;
48897;SDS011;34713;50.038;20.000;2024-02-26T00:45:52;21.20;;;11.00;;
48897;SDS011;34713;50.038;20.000;2024-02-26T00:48:18;16.60;;;10.30;;
48897;SDS011;34713;50.038;20.000;2024-02-26T00:50:45;19.90;;;10.80;;
48897;SDS011;34713;50.038;20.000;2024-02-26T00:53:11;23.50;;;10.60;;
48897;SDS011;34713;50.038;20.000;2024-02-26T00:55:38;16.60;;;10.20;;
48897;SDS011;34713;50.038;20.000;2024-02-26T00:58:04;23.00;;;10.80;;
48897;SDS011;34713;50.038;20.000;2024-02-26T01:00:31;20.10;;;10.40;;
48897;SDS011;34713;50.038;20.000;2024-02-26T01:02:57;17.10;;;10.80;;
48897;SDS011;34713;50.038;20.000;2024-02-26T01:05:25;28.60;;;18.00;;
48897;SDS011;34713;50.038;20.000;2024-02-26T01:07:52;22.60;;;12.80;;
48897;SDS011;34713;50.038;20.000;2024-02-26T01:10:19;24.90;;;12.70;;
48897;SDS011;34713;50.038;20.000;2024-02-26T01:12:45;21.80;;;11.70;;
48897;SDS011;34713;50.038;20.000;2024-02-26T01:15:12;20.10;;;12.10;;
48897;SDS011;34713;50.038;20.000;2024-02-26T01:17:38;21.30;;;13.40;;
48897;SDS011;34713;50.038;20.000;2024-02-26T01:20:05;26.10;;;15.20;;
48897;SDS011;34713;50.038;20.000;2024-02-26T01:22:32;20.90;;;12.10;;
48897;SDS011;34713;50.038;20.000;2024-02-26T01:24:59;30.50;;;12.20;;
48897;SDS011;34713;50.038;20.000;2024-02-26T01:27:25;20.40;;;11.60;;
48897;SDS011;34713;50.038;20.000;2024-02-26T01:29:53;22.90;;;11.40;;
48897;SDS011;34713;50.038;20.000;2024-02-26T01:32:20;22.00;;;11.10;;
48897;SDS011;34713;50.038;20.000;2024-02-26T01:34:46;18.60;;;11.20;;
48897;SDS011;34713;50.038;20.000;2024-02-26T01:37:13;20.50;;;11.40;;
48897;SDS011;34713;50.038;20.000;2024-02-26T01:39:39;20.10;;;11.50;;
48897;SDS011;34713;50.038;20.000;2024-02-26T01:42:07;21.30;;;12.30;;
48897;SDS011;34713;50.038;20.000;2024-02-26T01:44:34;20.00;;;12.40;;
48897;SDS011;34713;50.038;20.000;2024-02-26T01:47:00;21.50;;;12.40;;
48897;SDS011;34713;50.038;20.000;2024-02-26T01:49:27;25.70;;;13.80;;
48897;SDS011;34713;50.038;20.000;2024-02-26T01:51:54;23.80;;;13.10;;
48897;SDS011;34713;50.038;20.000;2024-02-26T01:54:21;23.20;;;15.30;;
48897;SDS011;34713;50.038;20.000;2024-02-26T01:56:48;23.20;;;13.70;;
48897;SDS011;34713;50.038;20.000;2024-02-26T01:59:15;25.00;;;14.40;;
48897;SDS011;34713;50.038;20.000;2024-02-26T02:01:42;22.00;;;13.60;;
48897;SDS011;34713;50.038;20.000;2024-02-26T02:04:11;26.50;;;14.80;;
48897;SDS011;34713;50.038;20.000;2024-02-26T02:06:38;25.60;;;14.80;;
48897;SDS011;34713;50.038;20.000;2024-02-26T02:09:04;26.00;;;15.10;;
48897;SDS011;34713;50.038;20.000;2024-02-26T02:11:33;25.50;;;15.00;;
48897;SDS011;34713;50.038;20.000;2024-02-26T02:14:00;24.80;;;15.00;;
48897;SDS011;34713;50.038;20.000;2024-02-26T02:16:26;27.80;;;15.60;;
48897;SDS011;34713;50.038;20.000;2024-02-26T02:18:53;22.20;;;14.20;;
48897;SDS011;34713;50.038;20.000;2024-02-26T02:21:19;23.50;;;13.10;;
48897;SDS011;34713;50.038;20.000;2024-02-26T02:23:46;24.60;;;13.30;;
48897;SDS011;34713;50.038;20.000;2024-02-26T02:26:13;21.50;;;11.50;;
48897;SDS011;34713;50.038;20.000;2024-02-26T02:28:40;20.50;;;11.20;;
48897;SDS011;34713;50.038;20.000;2024-02-26T02:31:07;21.20;;;12.20;;
48897;SDS011;34713;50.038;20.000;2024-02-26T02:33:34;18.70;;;11.60;;
48897;SDS011;34713;50.038;20.000;2024-02-26T02:36:01;21.70;;;11.70;;
48897;SDS011;34713;50.038;20.000;2024-02-26T02:38:27;19.80;;;11.50;;
48897;SDS011;34713;50.038;20.000;2024-02-26T02:40:56;22.10;;;12.10;;
48897;SDS011;34713;50.038;20.000;2024-02-26T02:43:22;24.30;;;12.10;;
48897;SDS011;34713;50.038;20.000;2024-02-26T02:45:49;23.50;;;11.80;;
48897;SDS011;34713;50.038;20.000;2024-02-26T02:48:15;22.50;;;12.10;;
48897;SDS011;34713;50.038;20.000;2024-02-26T02:50:42;23.70;;;13.10;;
48897;SDS011;34713;50.038;20.000;2024-02-26T02:53:08;20.80;;;12.10;;
48897;SDS011;34713;50.038;20.000;2024-02-26T02:55:35;26.20;;;13.10;;
48897;SDS011;34713;50.038;20.000;2024-02-26T02:58:01;24.50;;;12.40;;
48897;SDS011;34713;50.038;20.000;2024-02-26T03:00:28;27.30;;;14.70;;
48897;SDS011;34713;50.038;20.000;2024-02-26T03:02:54;26.30;;;13.60;;
48897;SDS011;34713;50.038;20.000;2024-02-26T03:05:21;22.50;;;13.90;;
48897;SDS011;34713;50.038;20.000;2024-02-26T03:07:48;25.10;;;14.00;;
48897;SDS011;34713;50.038;20.000;2024-02-26T03:10:14;28.40;;;15.20;;
48897;SDS011;34713;50.038;20.000;2024-02-26T03:12:41;24.00;;;13.90;;
48897;SDS011;34713;50.038;20.000;2024-02-26T03:15:08;25.90;;;15.90;;
48897;SDS011;34713;50.038;20.000;2024-02-26T03:17:35;26.20;;;15.40;;
48897;SDS011;34713;50.038;20.000;2024-02-26T03:20:01;27.10;;;14.80;;
48897;SDS011;34713;50.038;20.000;2024-02-26T03:22:29;25.50;;;14.40;;
48897;SDS011;34713;50.038;20.000;2024-02-26T03:24:56;24.90;;;14.30;;
48897;SDS011;34713;50.038;20.000;2024-02-26T03:27:23;30.70;;;15.20;;
48897;SDS011;34713;50.038;20.000;2024-02-26T03:29:50;29.10;;;16.00;;
48897;SDS011;34713;50.038;20.000;2024-02-26T03:32:17;26.50;;;15.30;;
48897;SDS011;34713;50.038;20.000;2024-02-26T03:34:43;27.00;;;15.50;;
48897;SDS011;34713;50.038;20.000;2024-02-26T03:37:10;24.50;;;14.50;;
48897;SDS011;34713;50.038;20.000;2024-02-26T03:39:37;29.60;;;15.00;;
48897;SDS011;34713;50.038;20.000;2024-02-26T03:42:03;24.70;;;15.10;;
48897;SDS011;34713;50.038;20.000;2024-02-26T03:44:30;26.70;;;14.50;;
48897;SDS011;34713;50.038;20.000;2024-02-26T03:46:56;23.70;;;14.40;;
48897;SDS011;34713;50.038;20.000;2024-02-26T03:49:23;24.70;;;13.70;;
48897;SDS011;34713;50.038;20.000;2024-02-26T03:51:50;26.30;;;13.40;;
48897;SDS011;34713;50.038;20.000;2024-02-26T03:54:16;25.20;;;14.00;;
48897;SDS011;34713;50.038;20.000;2024-02-26T03:56:43;26.60;;;13.90;;
48897;SDS011;34713;50.038;20.000;2024-02-26T03:59:09;24.90;;;13.70;;
48897;SDS011;34713;50.038;20.000;2024-02-26T04:01:35;23.60;;;13.60;;
48897;SDS011;34713;50.038;20.000;2024-02-26T04:04:02;26.90;;;14.40;;
48897;SDS011;34713;50.038;20.000;2024-02-26T04:06:29;25.50;;;14.30;;
48897;SDS011;34713;50.038;20.000;2024-02-26T04:08:55;24.10;;;12.90;;
48897;SDS011;34713;50.038;20.000;2024-02-26T04:11:22;23.80;;;14.30;;
48897;SDS011;34713;50.038;20.000;2024-02-26T04:13:48;25.20;;;14.50;;
48897;SDS011;34713;50.038;20.000;2024-02-26T04:16:18;28.40;;;15.20;;
48897;SDS011;34713;50.038;20.000;2024-02-26T04:18:45;29.40;;;14.50;;
48897;SDS011;34713;50.038;20.000;2024-02-26T04:21:11;25.00;;;14.10;;
48897;SDS011;34713;50.038;20.000;2024-02-26T04:23:38;25.30;;;13.20;;
48897;SDS011;34713;50.038;20.000;2024-02-26T04:26:04;20.30;;;14.00;;
48897;SDS011;34713;50.038;20.000;2024-02-26T04:28:31;26.20;;;13.10;;
48897;SDS011;34713;50.038;20.000;2024-02-26T04:30:58;28.70;;;13.90;;
48897;SDS011;34713;50.038;20.000;2024-02-26T04:33:24;33.00;;;13.80;;
48897;SDS011;34713;50.038;20.000;2024-02-26T04:35:51;30.10;;;14.00;;
48897;SDS011;34713;50.038;20.000;2024-02-26T04:38:17;27.10;;;15.20;;
48897;SDS011;34713;50.038;20.000;2024-02-26T04:40:44;43.50;;;24.20;;
48897;SDS011;34713;50.038;20.000;2024-02-26T04:43:11;33.10;;;17.90;;
48897;SDS011;34713;50.038;20.000;2024-02-26T04:45:37;28.90;;;15.10;;
48897;SDS011;34713;50.038;20.000;2024-02-26T04:48:04;27.00;;;13.90;;
48897;SDS011;34713;50.038;20.000;2024-02-26T04:50:31;31.00;;;14.70;;
48897;SDS011;34713;50.038;20.000;2024-02-26T04:52:57;29.00;;;13.70;;
48897;SDS011;34713;50.038;20.000;2024-02-26T04:55:24;34.80;;;14.90;;
48897;SDS011;34713;50.038;20.000;2024-02-26T04:57:50;26.30;;;15.50;;
48897;SDS011;34713;50.038;20.000;2024-02-26T05:00:17;24.90;;;14.10;;
48897;SDS011;34713;50.038;20.000;2024-02-26T05:02:44;23.90;;;14.60;;
48897;SDS011;34713;50.038;20.000;2024-02-26T05:05:10;26.80;;;14.10;;
48897;SDS011;34713;50.038;20.000;2024-02-26T05:07:39;37.00;;;13.60;;
48897;SDS011;34713;50.038;20.000;2024-02-26T05:10:07;29.40;;;14.00;;
48897;SDS011;34713;50.038;20.000;2024-02-26T05:12:34;32.90;;;15.70;;
48897;SDS011;34713;50.038;20.000;2024-02-26T05:15:02;39.60;;;17.20;;
48897;SDS011;34713;50.038;20.000;2024-02-26T05:17:29;37.50;;;16.90;;
48897;SDS011;34713;50.038;20.000;2024-02-26T05:19:55;28.10;;;15.90;;
48897;SDS011;34713;50.038;20.000;2024-02-26T05:22:22;40.10;;;16.10;;
48897;SDS011;34713;50.038;20.000;2024-02-26T05:24:48;32.10;;;15.30;;
48897;SDS011;34713;50.038;20.000;2024-02-26T05:27:15;33.90;;;16.00;;
48897;SDS011;34713;50.038;20.000;2024-02-26T05:29:42;41.10;;;15.30;;
48897;SDS011;34713;50.038;20.000;2024-02-26T05:32:08;37.40;;;16.20;;
48897;SDS011;34713;50.038;20.000;2024-02-26T05:34:35;32.60;;;16.40;;
48897;SDS011;34713;50.038;20.000;2024-02-26T05:37:01;31.00;;;16.20;;
48897;SDS011;34713;50.038;20.000;2024-02-26T05:39:28;33.60;;;17.00;;
48897;SDS011;34713;50.038;20.000;2024-02-26T05:41:54;32.10;;;15.50;;
48897;SDS011;34713;50.038;20.000;2024-02-26T05:44:22;27.50;;;15.00;;
48897;SDS011;34713;50.038;20.000;2024-02-26T05:46:49;28.10;;;14.40;;
48897;SDS011;34713;50.038;20.000;2024-02-26T05:49:15;31.10;;;14.70;;
48897;SDS011;34713;50.038;20.000;2024-02-26T05:51:42;32.80;;;15.40;;
48897;SDS011;34713;50.038;20.000;2024-02-26T05:54:08;23.80;;;13.90;;
48897;SDS011;34713;50.038;20.000;2024-02-26T05:56:36;30.10;;;14.20;;
48897;SDS011;34713;50.038;20.000;2024-02-26T05:59:03;28.30;;;14.90;;
48897;SDS011;34713;50.038;20.000;2024-02-26T06:01:30;26.80;;;14.40;;
48897;SDS011;34713;50.038;20.000;2024-02-26T06:03:56;28.50;;;14.10;;
48897;SDS011;34713;50.038;20.000;2024-02-26T06:06:23;25.80;;;14.10;;
48897;SDS011;34713;50.038;20.000;2024-02-26T06:08:50;25.90;;;14.30;;
48897;SDS011;34713;50.038;20.000;2024-02-26T06:11:16;38.20;;;15.40;;
48897;SDS011;34713;50.038;20.000;2024-02-26T06:13:44;43.20;;;16.60;;
48897;SDS011;34713;50.038;20.000;2024-02-26T06:16:10;37.60;;;16.70;;
48897;SDS011;34713;50.038;20.000;2024-02-26T06:18:37;38.40;;;17.10;;
48897;SDS011;34713;50.038;20.000;2024-02-26T06:21:03;32.80;;;17.60;;
48897;SDS011;34713;50.038;20.000;2024-02-26T06:23:30;38.30;;;17.80;;
48897;SDS011;34713;50.038;20.000;2024-02-26T06:25:57;32.50;;;18.00;;
48897;SDS011;34713;50.038;20.000;2024-02-26T06:28:23;35.90;;;18.40;;
48897;SDS011;34713;50.038;20.000;2024-02-26T06:30:50;34.60;;;17.90;;
48897;SDS011;34713;50.038;20.000;2024-02-26T06:33:18;31.80;;;18.50;;
48897;SDS011;34713;50.038;20.000;2024-02-26T06:35:45;34.30;;;18.50;;
48897;SDS011;34713;50.038;20.000;2024-02-26T06:38:11;35.60;;;18.90;;
48897;SDS011;34713;50.038;20.000;2024-02-26T06:40:39;34.80;;;18.30;;
48897;SDS011;34713;50.038;20.000;2024-02-26T06:43:06;36.00;;;20.10;;
48897;SDS011;34713;50.038;20.000;2024-02-26T06:45:33;39.70;;;18.40;;
48897;SDS011;34713;50.038;20.000;2024-02-26T06:47:59;35.20;;;16.90;;
48897;SDS011;34713;50.038;20.000;2024-02-26T06:50:26;30.90;;;16.50;;
48897;SDS011;34713;50.038;20.000;2024-02-26T06:52:52;31.10;;;16.30;;
48897;SDS011;34713;50.038;20.000;2024-02-26T06:55:19;31.10;;;16.40;;
48897;SDS011;34713;50.038;20.000;2024-02-26T06:57:46;28.10;;;15.90;;
48897;SDS011;34713;50.038;20.000;2024-02-26T07:00:12;34.30;;;17.60;;
48897;SDS011;34713;50.038;20.000;2024-02-26T07:02:41;36.70;;;18.00;;
48897;SDS011;34713;50.038;20.000;2024-02-26T07:05:08;44.00;;;17.60;;
48897;SDS011;34713;50.038;20.000;2024-02-26T07:07:35;34.90;;;18.10;;
48897;SDS011;34713;50.038;20.000;2024-02-26T07:10:02;36.90;;;18.30;;
48897;SDS011;34713;50.038;20.000;2024-02-26T07:12:32;36.50;;;20.00;;
48897;SDS011;34713;50.038;20.000;2024-02-26T07:14:58;45.70;;;19.90;;
48897;SDS011;34713;50.038;20.000;2024-02-26T07:17:25;43.40;;;20.10;;
48897;SDS011;34713;50.038;20.000;2024-02-26T07:19:51;47.60;;;21.90;;
48897;SDS011;34713;50.038;20.000;2024-02-26T07:22:18;42.80;;;22.40;;
48897;SDS011;34713;50.038;20.000;2024-02-26T07:24:45;46.10;;;22.70;;
48897;SDS011;34713;50.038;20.000;2024-02-26T07:27:12;50.00;;;23.60;;
48897;SDS011;34713;50.038;20.000;2024-02-26T07:29:38;62.60;;;23.70;;
48897;SDS011;34713;50.038;20.000;2024-02-26T07:32:05;56.90;;;23.30;;
48897;SDS011;34713;50.038;20.000;2024-02-26T07:34:32;70.10;;;23.80;;
48897;SDS011;34713;50.038;20.000;2024-02-26T07:36:58;47.20;;;22.30;;
48897;SDS011;34713;50.038;20.000;2024-02-26T07:39:25;47.40;;;22.20;;
48897;SDS011;34713;50.038;20.000;2024-02-26T07:41:52;53.00;;;23.30;;
48897;SDS011;34713;50.038;20.000;2024-02-26T07:44:19;43.30;;;22.00;;
48897;SDS011;34713;50.038;20.000;2024-02-26T07:46:45;50.30;;;20.70;;
48897;SDS011;34713;50.038;20.000;2024-02-26T07:49:12;37.60;;;19.80;;
48897;SDS011;34713;50.038;20.000;2024-02-26T07:51:38;37.60;;;20.30;;
48897;SDS011;34713;50.038;20.000;2024-02-26T07:54:05;40.00;;;20.80;;
48897;SDS011;34713;50.038;20.000;2024-02-26T07:56:32;35.40;;;20.70;;
48897;SDS011;34713;50.038;20.000;2024-02-26T07:58:59;38.20;;;20.30;;
48897;SDS011;34713;50.038;20.000;2024-02-26T08:01:25;36.10;;;18.70;;
48897;SDS011;34713;50.038;20.000;2024-02-26T08:03:53;38.30;;;18.90;;
48897;SDS011;34713;50.038;20.000;2024-02-26T08:06:19;39.50;;;17.90;;
48897;SDS011;34713;50.038;20.000;2024-02-26T08:08:46;35.00;;;17.40;;
48897;SDS011;34713;50.038;20.000;2024-02-26T08:11:16;30.80;;;16.20;;
48897;SDS011;34713;50.038;20.000;2024-02-26T08:13:42;21.80;;;14.90;;
48897;SDS011;34713;50.038;20.000;2024-02-26T08:16:09;28.00;;;14.30;;
48897;SDS011;34713;50.038;20.000;2024-02-26T08:18:35;29.00;;;15.40;;
48897;SDS011;34713;50.038;20.000;2024-02-26T08:21:02;25.50;;;16.10;;
48897;SDS011;34713;50.038;20.000;2024-02-26T08:23:29;30.10;;;17.30;;
48897;SDS011;34713;50.038;20.000;2024-02-26T08:25:57;30.50;;;18.90;;
48897;SDS011;34713;50.038;20.000;2024-02-26T08:28:23;27.90;;;18.80;;
48897;SDS011;34713;50.038;20.000;2024-02-26T08:30:51;26.20;;;18.40;;
48897;SDS011;34713;50.038;20.000;2024-02-26T08:33:17;29.30;;;19.80;;
48897;SDS011;34713;50.038;20.000;2024-02-26T08:35:44;29.70;;;15.70;;
48897;SDS011;34713;50.038;20.000;2024-02-26T08:38:10;24.00;;;14.20;;
48897;SDS011;34713;50.038;20.000;2024-02-26T08:40:37;20.90;;;14.20;;
48897;SDS011;34713;50.038;20.000;2024-02-26T08:43:03;21.70;;;13.40;;
48897;SDS011;34713;50.038;20.000;2024-02-26T08:45:30;27.70;;;14.40;;
48897;SDS011;34713;50.038;20.000;2024-02-26T08:47:56;29.70;;;13.00;;
48897;SDS011;34713;50.038;20.000;2024-02-26T08:50:24;23.60;;;13.60;;
48897;SDS011;34713;50.038;20.000;2024-02-26T08:52:51;23.30;;;13.00;;
48897;SDS011;34713;50.038;20.000;2024-02-26T08:55:19;25.40;;;11.80;;
48897;SDS011;34713;50.038;20.000;2024-02-26T08:57:46;25.00;;;13.40;;
48897;SDS011;34713;50.038;20.000;2024-02-26T09:00:13;19.30;;;11.80;;
48897;SDS011;34713;50.038;20.000;2024-02-26T09:02:41;21.20;;;11.90;;
48897;SDS011;34713;50.038;20.000;2024-02-26T09:05:10;27.40;;;12.60;;
48897;SDS011;34713;50.038;20.000;2024-02-26T09:07:36;23.90;;;11.70;;
48897;SDS011;34713;50.038;20.000;2024-02-26T09:10:03;21.40;;;11.40;;
48897;SDS011;34713;50.038;20.000;2024-02-26T09:12:30;21.10;;;10.00;;
48897;SDS011;34713;50.038;20.000;2024-02-26T09:14:57;21.50;;;8.70;;
48897;SDS011;34713;50.038;20.000;2024-02-26T09:17:23;16.00;;;8.60;;
48897;SDS011;34713;50.038;20.000;2024-02-26T09:19:50;14.70;;;8.50;;
48897;SDS011;34713;50.038;20.000;2024-02-26T09:22:16;13.10;;;7.60;;
48897;SDS011;34713;50.038;20.000;2024-02-26T09:24:43;13.90;;;7.40;;
48897;SDS011;34713;50.038;20.000;2024-02-26T09:27:09;15.50;;;6.80;;
48897;SDS011;34713;50.038;20.000;2024-02-26T09:29:36;11.60;;;6.70;;
48897;SDS011;34713;50.038;20.000;2024-02-26T09:32:03;10.60;;;6.80;;
48897;SDS011;34713;50.038;20.000;2024-02-26T09:34:30;9.10;;;5.80;;
48897;SDS011;34713;50.038;20.000;2024-02-26T09:36:56;15.50;;;6.30;;
48897;SDS011;34713;50.038;20.000;2024-02-26T09:39:23;7.90;;;5.40;;
48897;SDS011;34713;50.038;20.000;2024-02-26T09:41:49;10.80;;;6.00;;
48897;SDS011;34713;50.038;20.000;2024-02-26T09:44:18;11.80;;;6.20;;
48897;SDS011;34713;50.038;20.000;2024-02-26T09:46:49;15.10;;;6.20;;
48897;SDS011;34713;50.038;20.000;2024-02-26T09:49:18;10.70;;;6.10;;
48897;SDS011;34713;50.038;20.000;2024-02-26T09:51:47;14.00;;;5.60;;
48897;SDS011;34713;50.038;20.000;2024-02-26T09:54:15;10.40;;;5.60;;
48897;SDS011;34713;50.038;20.000;2024-02-26T09:56:43;10.80;;;6.00;;
48897;SDS011;34713;50.038;20.000;2024-02-26T09:59:13;13.00;;;5.50;;
48897;SDS011;34713;50.038;20.000;2024-02-26T10:01:41;11.00;;;5.70;;
48897;SDS011;34713;50.038;20.000;2024-02-26T10:04:08;7.90;;;5.10;;
48897;SDS011;34713;50.038;20.000;2024-02-26T10:06:37;10.60;;;5.00;;
48897;SDS011;34713;50.038;20.000;2024-02-26T10:09:04;11.00;;;4.30;;
48897;SDS011;34713;50.038;20.000;2024-02-26T10:11:33;7.60;;;4.40;;
48897;SDS011;34713;50.038;20.000;2024-02-26T10:14:00;8.70;;;4.00;;
48897;SDS011;34713;50.038;20.000;2024-02-26T10:16:27;7.60;;;4.20;;
48897;SDS011;34713;50.038;20.000;2024-02-26T10:18:54;8.80;;;3.70;;
48897;SDS011;34713;50.038;20.000;2024-02-26T10:21:21;9.70;;;3.80;;
48897;SDS011;34713;50.038;20.000;2024-02-26T10:23:47;6.10;;;3.40;;
48897;SDS011;34713;50.038;20.000;2024-02-26T10:26:15;6.40;;;3.10;;
48897;SDS011;34713;50.038;20.000;2024-02-26T10:28:45;4.20;;;2.60;;
48897;SDS011;34713;50.038;20.000;2024-02-26T10:31:13;7.30;;;3.30;;
48897;SDS011;34713;50.038;20.000;2024-02-26T10:33:41;5.00;;;3.10;;
48897;SDS011;34713;50.038;20.000;2024-02-26T10:36:09;7.40;;;2.90;;
48897;SDS011;34713;50.038;20.000;2024-02-26T10:38:35;7.60;;;2.60;;
48897;SDS011;34713;50.038;20.000;2024-02-26T10:41:06;5.00;;;2.60;;
48897;SDS011;34713;50.038;20.000;2024-02-26T10:43:34;7.80;;;3.10;;
48897;SDS011;34713;50.038;20.000;2024-02-26T10:46:01;4.60;;;2.50;;
48897;SDS011;34713;50.038;20.000;2024-02-26T10:48:27;8.30;;;2.40;;
48897;SDS011;34713;50.038;20.000;2024-02-26T10:50:54;7.50;;;2.50;;
48897;SDS011;34713;50.038;20.000;2024-02-26T10:53:22;5.20;;;2.70;;
48897;SDS011;34713;50.038;20.000;2024-02-26T10:56:07;6.00;;;2.50;;
48897;SDS011;34713;50.038;20.000;2024-02-26T10:58:35;8.80;;;2.80;;
48897;SDS011;34713;50.038;20.000;2024-02-26T11:01:02;7.10;;;2.30;;
48897;SDS011;34713;50.038;20.000;2024-02-26T11:03:29;13.40;;;2.80;;
48897;SDS011;34713;50.038;20.000;2024-02-26T11:06:03;6.00;;;2.40;;
48897;SDS011;34713;50.038;20.000;2024-02-26T11:08:30;6.10;;;2.20;;
48897;SDS011;34713;50.038;20.000;2024-02-26T11:10:56;15.30;;;2.30;;
48897;SDS011;34713;50.038;20.000;2024-02-26T11:13:25;10.70;;;2.10;;
48897;SDS011;34713;50.038;20.000;2024-02-26T11:15:53;5.70;;;2.20;;
48897;SDS011;34713;50.038;20.000;2024-02-26T11:18:23;8.50;;;2.20;;
48897;SDS011;34713;50.038;20.000;2024-02-26T11:20:50;3.00;;;1.60;;
48897;SDS011;34713;50.038;20.000;2024-02-26T11:23:17;6.50;;;2.00;;
48897;SDS011;34713;50.038;20.000;2024-02-26T11:25:44;4.20;;;1.70;;
48897;SDS011;34713;50.038;20.000;2024-02-26T11:28:12;3.70;;;1.60;;
48897;SDS011;34713;50.038;20.000;2024-02-26T11:30:41;2.80;;;1.50;;
48897;SDS011;34713;50.038;20.000;2024-02-26T11:33:10;5.60;;;1.70;;
48897;SDS011;34713;50.038;20.000;2024-02-26T11:35:38;4.00;;;1.80;;
48897;SDS011;34713;50.038;20.000;2024-02-26T11:38:05;5.30;;;1.80;;
48897;SDS011;34713;50.038;20.000;2024-02-26T11:40:33;6.90;;;1.80;;
48897;SDS011;34713;50.038;20.000;2024-02-26T11:43:07;10.60;;;2.30;;
48897;SDS011;34713;50.038;20.000;2024-02-26T11:48:14;3.20;;;1.70;;
48897;SDS011;34713;50.038;20.000;2024-02-26T11:50:42;6.00;;;2.10;;
48897;SDS011;34713;50.038;20.000;2024-02-26T11:58:43;4.10;;;1.50;;
48897;SDS011;34713;50.038;20.000;2024-02-26T12:04:05;4.50;;;1.50;;
48897;SDS011;34713;50.038;20.000;2024-02-26T12:06:46;4.60;;;1.70;;
48897;SDS011;34713;50.038;20.000;2024-02-26T12:09:39;2.50;;;1.50;;
48897;SDS011;34713;50.038;20.000;2024-02-26T12:12:10;2.30;;;1.60;;
48897;SDS011;34713;50.038;20.000;2024-02-26T12:14:40;3.20;;;1.90;;
48897;SDS011;34713;50.038;20.000;2024-02-26T12:17:21;6.00;;;2.10;;
48897;SDS011;34713;50.038;20.000;2024-02-26T12:19:51;8.10;;;2.30;;
48897;SDS011;34713;50.038;20.000;2024-02-26T12:22:19;6.10;;;1.90;;
48897;SDS011;34713;50.038;20.000;2024-02-26T12:24:46;3.00;;;1.80;;
48897;SDS011;34713;50.038;20.000;2024-02-26T12:27:12;5.30;;;2.00;;
48897;SDS011;34713;50.038;20.000;2024-02-26T12:29:39;6.70;;;2.10;;
48897;SDS011;34713;50.038;20.000;2024-02-26T12:32:06;7.70;;;2.10;;
48897;SDS011;34713;50.038;20.000;2024-02-26T12:34:32;7.90;;;1.70;;
48897;SDS011;34713;50.038;20.000;2024-02-26T12:36:59;5.80;;;2.00;;
48897;SDS011;34713;50.038;20.000;2024-02-26T12:39:25;6.50;;;1.90;;
48897;SDS011;34713;50.038;20.000;2024-02-26T12:41:52;4.60;;;2.30;;
48897;SDS011;34713;50.038;20.000;2024-02-26T12:44:25;11.20;;;2.40;;
48897;SDS011;34713;50.038;20.000;2024-02-26T12:46:59;7.30;;;2.30;;
48897;SDS011;34713;50.038;20.000;2024-02-26T12:49:31;7.00;;;3.00;;
48897;SDS011;34713;50.038;20.000;2024-02-26T12:51:58;12.00;;;2.50;;
48897;SDS011;34713;50.038;20.000;2024-02-26T12:54:30;5.10;;;2.00;;
48897;SDS011;34713;50.038;20.000;2024-02-26T12:57:00;3.60;;;2.50;;
48897;SDS011;34713;50.038;20.000;2024-02-26T12:59:28;6.10;;;2.60;;
48897;SDS011;34713;50.038;20.000;2024-02-26T13:01:55;6.50;;;2.10;;
48897;SDS011;34713;50.038;20.000;2024-02-26T13:04:22;4.20;;;1.70;;
48897;SDS011;34713;50.038;20.000;2024-02-26T13:06:48;4.20;;;2.00;;
48897;SDS011;34713;50.038;20.000;2024-02-26T13:09:15;5.00;;;2.40;;
48897;SDS011;34713;50.038;20.000;2024-02-26T13:11:44;3.40;;;2.10;;
48897;SDS011;34713;50.038;20.000;2024-02-26T13:14:20;4.80;;;2.10;;
48897;SDS011;34713;50.038;20.000;2024-02-26T13:16:57;2.60;;;2.00;;
48897;SDS011;34713;50.038;20.000;2024-02-26T13:19:24;4.00;;;2.10;;
48897;SDS011;34713;50.038;20.000;2024-02-26T13:21:50;8.20;;;3.20;;
48897;SDS011;34713;50.038;20.000;2024-02-26T13:24:17;13.20;;;3.80;;
48897;SDS011;34713;50.038;20.000;2024-02-26T13:26:46;7.30;;;3.60;;
48897;SDS011;34713;50.038;20.000;2024-02-26T13:29:18;9.60;;;4.20;;
48897;SDS011;34713;50.038;20.000;2024-02-26T13:31:45;6.20;;;3.20;;
48897;SDS011;34713;50.038;20.000;2024-02-26T13:34:25;12.60;;;3.40;;
48897;SDS011;34713;50.038;20.000;2024-02-26T13:36:53;8.80;;;3.70;;
48897;SDS011;34713;50.038;20.000;2024-02-26T13:39:27;5.30;;;3.50;;
48897;SDS011;34713;50.038;20.000;2024-02-26T13:41:54;5.30;;;3.30;;
48897;SDS011;34713;50.038;20.000;2024-02-26T13:44:21;8.60;;;3.00;;
48897;SDS011;34713;50.038;20.000;2024-02-26T13:46:47;13.00;;;3.40;;
48897;SDS011;34713;50.038;20.000;2024-02-26T13:49:15;9.00;;;3.60;;
48897;SDS011;34713;50.038;20.000;2024-02-26T13:51:42;11.60;;;3.50;;
48897;SDS011;34713;50.038;20.000;2024-02-26T13:54:08;5.90;;;3.90;;
48897;SDS011;34713;50.038;20.000;2024-02-26T13:56:37;14.70;;;4.10;;
48897;SDS011;34713;50.038;20.000;2024-02-26T13:59:04;10.10;;;4.80;;
48897;SDS011;34713;50.038;20.000;2024-02-26T14:01:31;6.10;;;4.20;;
48897;SDS011;34713;50.038;20.000;2024-02-26T14:03:59;13.60;;;5.20;;
48897;SDS011;34713;50.038;20.000;2024-02-26T14:06:28;12.20;;;4.40;;
48897;SDS011;34713;50.038;20.000;2024-02-26T14:08:55;9.00;;;4.80;;
48897;SDS011;34713;50.038;20.000;2024-02-26T14:11:21;11.50;;;5.40;;
48897;SDS011;34713;50.038;20.000;2024-02-26T14:13:48;8.00;;;4.80;;
48897;SDS011;34713;50.038;20.000;2024-02-26T14:16:14;9.60;;;5.20;;
48897;SDS011;34713;50.038;20.000;2024-02-26T14:18:41;10.00;;;5.10;;
48897;SDS011;34713;50.038;20.000;2024-02-26T14:21:10;8.80;;;6.20;;
48897;SDS011;34713;50.038;20.000;2024-02-26T14:23:37;7.80;;;5.30;;
48897;SDS011;34713;50.038;20.000;2024-02-26T14:26:03;12.80;;;5.60;;
48897;SDS011;34713;50.038;20.000;2024-02-26T14:28:30;8.60;;;5.40;;